Saxilby, United Kingdom
Current Conditions -  °F | °C
As of 12:50 AM on Saturday 22 Nov 2014 (Local Time) from EGXP Reporting Station
Overcast Overcast  
Wind Chill: 41°   Ceiling: 400
Heat Index: 46°   Visibility: 2.3mi
Dew Point: 46°   Wind: 12mph
Humidity: 100%   Direction: 150°SSE
Pressure: 29.88"   Gusts: NA
Location:  53.27°N, 0.66°W
Report Text: EGXP 220050Z AUTO 15010KT 3700 // OVC004/// 08/08 Q1012
Loading
Personal Weather Stations






























Interactive Weather Map New forecast layout! Learn more

10-Day Weather Forecast

Advertisements
Track Severe Weather on mobile